Galion, Ohio
Current Conditions -  °F | °C
As of 1:52 AM on Sunday 23 Nov 2014 (Local Time) from KMFD Reporting Station
Overcast Overcast  
Wind Chill: 44°   Ceiling: 3700
Heat Index: 49°   Visibility: 10mi
Dew Point: 35°   Wind: 14mph
Humidity: 59%   Direction: 200°SSW
Pressure: 30.03"   Gusts: NA
Location:  40.73°N, 82.79°W
Report Text: KMFD 230652Z 20012KT 10SM OVC037 09/02 A3003 RMK AO2 SLP173 T00940017
Loading
Personal Weather Stations






























Interactive Weather Map New forecast layout! Learn more

10-Day Weather Forecast

Advertisements
Track Severe Weather on mobile